Leming, Texas
Current Conditions -  °F | °C
As of 12:55 AM on Thursday 23 Oct 2014 (Local Time) from KPEZ Reporting Station
Broken Clouds Broken Clouds  
Wind Chill: 71°   Ceiling: 12000
Heat Index: 71°   Visibility: 10mi
Dew Point: 62°   Wind: 3mph
Humidity: 72%   Direction: 120°ESE
Pressure: 30.09"   Gusts: NA
Location:  29.07°N, 98.48°W
Report Text: KPEZ 230555Z AUTO 12003KT 10SM BKN120 22/17 A3009 RMK AO2 T02170165 10272 20216 403010141
Loading
Personal Weather Stations






























Interactive Weather Map
Tropical Storm Tracking
New forecast layout! Learn more

10-Day Weather Forecast

Advertisements
Track Severe Weather on mobile